KOGA/OGA METAR and TAF weather

Enter ICAO airport designator
Station Type Date Time Source
KOGA METAR 2022/01/26 08:15 UTC NOAA

KOGA 260815Z AUTO 21008KT 10SM OVC004 M06/M06 A3024 RMK AO2 T10571061


Station Type Date Time Source
KOGA Decoded METAR 2022/01/26 08:15 UTC NOAA

Ogallala, Searle Field Airport, NE, United States (KOGA) 41-07-11N 101-46-08W
Jan 26, 2022 - 03:15 AM EST / 2022.01.26 0815 UTC
Wind: from the SSW (210 degrees) at 9 MPH (8 KT):0
Visibility: 10 mile(s):0
Sky conditions: overcast
Temperature: 21.7 F (-5.7 C)
Windchill: 12 F (-11 C):1
Dew Point: 21.0 F (-6.1 C)
Relative Humidity: 96%
Pressure (altimeter): 30.24 in. Hg (1024 hPa)
ob: KOGA 260815Z AUTO 21008KT 10SM OVC004 M06/M06 A3024 RMK AO2 T10571061
cycle: 8

Station Type Date Time Source
KOGA TAF UTC NOAA

Error!

Example: see airport list